sensor_id;sensor_type;location;lat;lon;timestamp;pressure;altitude;pressure_sealevel;temperature;humidity
20424;BME280;10371;49.042;8.002;2024-01-15T00:00:27;99028.47;;;-1.48;88.61
20424;BME280;10371;49.042;8.002;2024-01-15T00:01:27;99030.19;;;-1.49;88.42
20424;BME280;10371;49.042;8.002;2024-01-15T00:02:27;99025.41;;;-1.57;88.60
20424;BME280;10371;49.042;8.002;2024-01-15T00:03:27;99022.19;;;-1.60;88.45
20424;BME280;10371;49.042;8.002;2024-01-15T00:04:28;99030.53;;;-1.57;88.79
20424;BME280;10371;49.042;8.002;2024-01-15T00:05:28;99028.19;;;-1.61;88.45
20424;BME280;10371;49.042;8.002;2024-01-15T00:06:28;99020.03;;;-1.69;88.73
20424;BME280;10371;49.042;8.002;2024-01-15T00:07:28;99025.00;;;-1.66;88.89
20424;BME280;10371;49.042;8.002;2024-01-15T00:08:29;99030.03;;;-1.65;88.85
20424;BME280;10371;49.042;8.002;2024-01-15T00:09:29;99037.00;;;-1.68;88.68
20424;BME280;10371;49.042;8.002;2024-01-15T00:10:29;99030.88;;;-1.64;88.83
20424;BME280;10371;49.042;8.002;2024-01-15T00:11:30;99029.19;;;-1.65;88.91
20424;BME280;10371;49.042;8.002;2024-01-15T00:12:30;99037.50;;;-1.60;88.85
20424;BME280;10371;49.042;8.002;2024-01-15T00:13:30;99033.16;;;-1.58;88.88
20424;BME280;10371;49.042;8.002;2024-01-15T00:14:30;99026.31;;;-1.58;88.73
20424;BME280;10371;49.042;8.002;2024-01-15T00:15:31;99029.00;;;-1.61;88.73
20424;BME280;10371;49.042;8.002;2024-01-15T00:16:31;99023.81;;;-1.59;88.73
20424;BME280;10371;49.042;8.002;2024-01-15T00:17:31;99022.72;;;-1.53;88.50
20424;BME280;10371;49.042;8.002;2024-01-15T00:18:31;99024.53;;;-1.55;88.42
20424;BME280;10371;49.042;8.002;2024-01-15T00:19:32;99021.28;;;-1.59;88.15
20424;BME280;10371;49.042;8.002;2024-01-15T00:20:32;99029.97;;;-1.63;88.17
20424;BME280;10371;49.042;8.002;2024-01-15T00:21:32;99021.81;;;-1.71;88.10
20424;BME280;10371;49.042;8.002;2024-01-15T00:22:32;99024.56;;;-1.76;88.03
20424;BME280;10371;49.042;8.002;2024-01-15T00:23:35;99015.91;;;-1.72;88.10
20424;BME280;10371;49.042;8.002;2024-01-15T00:24:35;99013.34;;;-1.72;88.26
20424;BME280;10371;49.042;8.002;2024-01-15T00:25:36;99011.47;;;-1.68;88.34
20424;BME280;10371;49.042;8.002;2024-01-15T00:26:36;99020.91;;;-1.70;88.46
20424;BME280;10371;49.042;8.002;2024-01-15T00:27:36;99013.22;;;-1.69;88.46
20424;BME280;10371;49.042;8.002;2024-01-15T00:28:37;99005.47;;;-1.67;88.21
20424;BME280;10371;49.042;8.002;2024-01-15T00:29:38;99011.63;;;-1.71;87.94
20424;BME280;10371;49.042;8.002;2024-01-15T00:30:38;99007.28;;;-1.69;88.03
20424;BME280;10371;49.042;8.002;2024-01-15T00:31:38;99007.81;;;-1.63;87.89
20424;BME280;10371;49.042;8.002;2024-01-15T00:32:38;99002.88;;;-1.66;88.21
20424;BME280;10371;49.042;8.002;2024-01-15T00:33:39;99000.38;;;-1.67;87.73
20424;BME280;10371;49.042;8.002;2024-01-15T00:34:39;99002.38;;;-1.74;87.92
20424;BME280;10371;49.042;8.002;2024-01-15T00:35:39;98994.56;;;-1.71;87.85
20424;BME280;10371;49.042;8.002;2024-01-15T00:36:39;98994.66;;;-1.72;87.92
20424;BME280;10371;49.042;8.002;2024-01-15T00:37:40;98990.53;;;-1.75;88.30
20424;BME280;10371;49.042;8.002;2024-01-15T00:38:40;98983.88;;;-1.79;88.20
20424;BME280;10371;49.042;8.002;2024-01-15T00:39:40;98980.50;;;-1.80;88.16
20424;BME280;10371;49.042;8.002;2024-01-15T00:40:41;98983.13;;;-1.81;88.39
20424;BME280;10371;49.042;8.002;2024-01-15T00:41:42;98983.88;;;-1.79;88.03
20424;BME280;10371;49.042;8.002;2024-01-15T00:42:42;98982.78;;;-1.73;88.22
20424;BME280;10371;49.042;8.002;2024-01-15T00:43:43;98984.66;;;-1.77;88.36
20424;BME280;10371;49.042;8.002;2024-01-15T00:44:43;98981.41;;;-1.81;88.06
20424;BME280;10371;49.042;8.002;2024-01-15T00:45:43;98981.31;;;-1.79;88.25
20424;BME280;10371;49.042;8.002;2024-01-15T00:46:45;98989.13;;;-1.82;88.11
20424;BME280;10371;49.042;8.002;2024-01-15T00:47:48;98981.41;;;-1.81;88.11
20424;BME280;10371;49.042;8.002;2024-01-15T00:48:48;98982.41;;;-1.85;88.21
20424;BME280;10371;49.042;8.002;2024-01-15T00:49:49;98978.50;;;-1.92;88.30
20424;BME280;10371;49.042;8.002;2024-01-15T00:50:49;98987.09;;;-1.94;88.64
20424;BME280;10371;49.042;8.002;2024-01-15T00:51:49;98986.28;;;-1.95;88.53
20424;BME280;10371;49.042;8.002;2024-01-15T00:52:49;98978.63;;;-1.95;88.50
20424;BME280;10371;49.042;8.002;2024-01-15T00:53:50;98973.44;;;-1.93;88.93
20424;BME280;10371;49.042;8.002;2024-01-15T00:54:50;98971.72;;;-1.93;88.73
20424;BME280;10371;49.042;8.002;2024-01-15T00:55:50;98976.81;;;-1.93;88.89
20424;BME280;10371;49.042;8.002;2024-01-15T00:56:50;98973.53;;;-1.95;89.10
20424;BME280;10371;49.042;8.002;2024-01-15T00:57:51;98975.94;;;-1.92;89.23
20424;BME280;10371;49.042;8.002;2024-01-15T00:58:51;98973.44;;;-1.93;89.10
20424;BME280;10371;49.042;8.002;2024-01-15T00:59:51;98970.09;;;-1.94;89.12
20424;BME280;10371;49.042;8.002;2024-01-15T01:00:52;98968.53;;;-1.98;88.83
20424;BME280;10371;49.042;8.002;2024-01-15T01:01:52;98968.53;;;-1.98;89.10
20424;BME280;10371;49.042;8.002;2024-01-15T01:02:52;98969.53;;;-2.00;89.10
20424;BME280;10371;49.042;8.002;2024-01-15T01:03:52;98971.09;;;-1.98;89.37
20424;BME280;10371;49.042;8.002;2024-01-15T01:04:53;98963.53;;;-1.99;89.54
20424;BME280;10371;49.042;8.002;2024-01-15T01:05:53;98960.88;;;-1.98;89.20
20424;BME280;10371;49.042;8.002;2024-01-15T01:06:53;98963.56;;;-2.01;89.53
20424;BME280;10371;49.042;8.002;2024-01-15T01:07:53;98969.38;;;-1.97;89.36
20424;BME280;10371;49.042;8.002;2024-01-15T01:08:54;98968.44;;;-1.95;89.58
20424;BME280;10371;49.042;8.002;2024-01-15T01:09:54;98967.66;;;-1.97;89.12
20424;BME280;10371;49.042;8.002;2024-01-15T01:10:55;98963.53;;;-1.99;89.24
20424;BME280;10371;49.042;8.002;2024-01-15T01:11:56;98969.63;;;-2.04;89.58
20424;BME280;10371;49.042;8.002;2024-01-15T01:12:56;98976.47;;;-2.04;89.67
20424;BME280;10371;49.042;8.002;2024-01-15T01:13:56;98970.47;;;-2.03;89.82
20424;BME280;10371;49.042;8.002;2024-01-15T01:14:57;98957.78;;;-2.05;89.52
20424;BME280;10371;49.042;8.002;2024-01-15T01:15:57;98960.00;;;-1.97;89.66
20424;BME280;10371;49.042;8.002;2024-01-15T01:16:58;98958.91;;;-1.91;89.89
20424;BME280;10371;49.042;8.002;2024-01-15T01:17:58;98961.53;;;-1.93;89.63
20424;BME280;10371;49.042;8.002;2024-01-15T01:18:58;98956.56;;;-1.96;89.79
20424;BME280;10371;49.042;8.002;2024-01-15T01:19:58;98960.00;;;-1.97;89.46
20424;BME280;10371;49.042;8.002;2024-01-15T01:20:59;98966.06;;;-1.99;89.82
20424;BME280;10371;49.042;8.002;2024-01-15T01:21:59;98967.81;;;-2.00;89.92
20424;BME280;10371;49.042;8.002;2024-01-15T01:22:59;98959.44;;;-2.04;90.04
20424;BME280;10371;49.042;8.002;2024-01-15T01:24:00;98961.66;;;-1.96;89.99
20424;BME280;10371;49.042;8.002;2024-01-15T01:25:00;98954.84;;;-1.95;90.12
20424;BME280;10371;49.042;8.002;2024-01-15T01:26:00;98952.28;;;-1.95;90.31
20424;BME280;10371;49.042;8.002;2024-01-15T01:27:00;98954.00;;;-1.96;89.97
20424;BME280;10371;49.042;8.002;2024-01-15T01:28:01;98959.88;;;-1.94;89.90
20424;BME280;10371;49.042;8.002;2024-01-15T01:29:01;98955.91;;;-2.01;90.14
20424;BME280;10371;49.042;8.002;2024-01-15T01:30:01;98951.72;;;-2.02;90.32
20424;BME280;10371;49.042;8.002;2024-01-15T01:31:02;98955.91;;;-2.01;90.41
20424;BME280;10371;49.042;8.002;2024-01-15T01:32:02;98957.47;;;-1.97;90.27
20424;BME280;10371;49.042;8.002;2024-01-15T01:33:02;98954.16;;;-1.99;90.50
20424;BME280;10371;49.042;8.002;2024-01-15T01:34:03;98959.19;;;-1.97;90.65
20424;BME280;10371;49.042;8.002;2024-01-15T01:35:03;98960.84;;;-1.96;90.73
20424;BME280;10371;49.042;8.002;2024-01-15T01:36:07;98960.00;;;-1.97;90.52
20424;BME280;10371;49.042;8.002;2024-01-15T01:37:08;98962.44;;;-1.94;90.55
20424;BME280;10371;49.042;8.002;2024-01-15T01:38:08;98960.66;;;-1.92;90.63
20424;BME280;10371;49.042;8.002;2024-01-15T01:39:09;98965.75;;;-1.92;90.91
20424;BME280;10371;49.042;8.002;2024-01-15T01:40:09;98964.78;;;-1.89;90.74
20424;BME280;10371;49.042;8.002;2024-01-15T01:41:10;98956.56;;;-1.96;90.58
20424;BME280;10371;49.042;8.002;2024-01-15T01:42:11;98962.44;;;-1.94;90.95
20424;BME280;10371;49.042;8.002;2024-01-15T01:43:12;98967.41;;;-1.91;90.91
20424;BME280;10371;49.042;8.002;2024-01-15T01:44:12;98969.81;;;-1.88;90.61
20424;BME280;10371;49.042;8.002;2024-01-15T01:45:12;98971.53;;;-1.88;90.77
20424;BME280;10371;49.042;8.002;2024-01-15T01:46:12;98969.75;;;-1.86;90.68
20424;BME280;10371;49.042;8.002;2024-01-15T01:47:14;98973.13;;;-1.86;90.69
20424;BME280;10371;49.042;8.002;2024-01-15T01:48:14;98978.78;;;-1.79;90.85
20424;BME280;10371;49.042;8.002;2024-01-15T01:49:15;98969.63;;;-1.83;90.43
20424;BME280;10371;49.042;8.002;2024-01-15T01:50:16;98969.81;;;-1.88;90.60
20424;BME280;10371;49.042;8.002;2024-01-15T01:51:16;98970.63;;;-1.87;90.81
20424;BME280;10371;49.042;8.002;2024-01-15T01:52:16;98965.53;;;-1.87;90.70
20424;BME280;10371;49.042;8.002;2024-01-15T01:53:17;98964.50;;;-1.83;90.48
20424;BME280;10371;49.042;8.002;2024-01-15T01:54:17;98967.13;;;-1.85;90.54
20424;BME280;10371;49.042;8.002;2024-01-15T01:55:19;98965.38;;;-1.84;90.59
20424;BME280;10371;49.042;8.002;2024-01-15T01:56:20;98963.69;;;-1.84;90.76
20424;BME280;10371;49.042;8.002;2024-01-15T01:57:21;98962.66;;;-1.80;90.61
20424;BME280;10371;49.042;8.002;2024-01-15T01:58:21;98961.88;;;-1.82;90.77
20424;BME280;10371;49.042;8.002;2024-01-15T01:59:22;98962.59;;;-1.78;90.52
20424;BME280;10371;49.042;8.002;2024-01-15T02:00:23;98967.47;;;-1.73;90.56
20424;BME280;10371;49.042;8.002;2024-01-15T02:01:24;98956.63;;;-1.78;90.30
20424;BME280;10371;49.042;8.002;2024-01-15T02:02:24;98963.19;;;-1.73;90.65
20424;BME280;10371;49.042;8.002;2024-01-15T02:03:27;98952.16;;;-1.73;90.24
20424;BME280;10371;49.042;8.002;2024-01-15T02:04:27;98960.31;;;-1.65;90.19
20424;BME280;10371;49.042;8.002;2024-01-15T02:05:28;98952.16;;;-1.73;90.43
20424;BME280;10371;49.042;8.002;2024-01-15T02:06:29;98955.34;;;-1.68;90.57
20424;BME280;10371;49.042;8.002;2024-01-15T02:07:29;98958.53;;;-1.63;90.34
20424;BME280;10371;49.042;8.002;2024-01-15T02:08:30;98957.63;;;-1.62;90.04
20424;BME280;10371;49.042;8.002;2024-01-15T02:09:30;98957.56;;;-1.61;89.83
20424;BME280;10371;49.042;8.002;2024-01-15T02:10:32;98955.06;;;-1.62;90.08
20424;BME280;10371;49.042;8.002;2024-01-15T02:11:32;98954.38;;;-1.66;90.13
20424;BME280;10371;49.042;8.002;2024-01-15T02:12:32;98943.22;;;-1.63;90.17
20424;BME280;10371;49.042;8.002;2024-01-15T02:13:33;98948.31;;;-1.63;90.29
20424;BME280;10371;49.042;8.002;2024-01-15T02:14:33;98954.94;;;-1.59;90.24
20424;BME280;10371;49.042;8.002;2024-01-15T02:15:34;98948.13;;;-1.59;90.21
20424;BME280;10371;49.042;8.002;2024-01-15T02:16:34;98953.13;;;-1.57;89.70
20424;BME280;10371;49.042;8.002;2024-01-15T02:17:34;98953.13;;;-1.57;89.96
20424;BME280;10371;49.042;8.002;2024-01-15T02:18:41;98951.50;;;-1.58;90.23
20424;BME280;10371;49.042;8.002;2024-01-15T02:19:41;98940.38;;;-1.57;90.13
20424;BME280;10371;49.042;8.002;2024-01-15T02:20:42;98946.25;;;-1.55;89.74
20424;BME280;10371;49.042;8.002;2024-01-15T02:21:44;98959.97;;;-1.58;90.13
20424;BME280;10371;49.042;8.002;2024-01-15T02:22:44;98953.75;;;-1.52;89.97
20424;BME280;10371;49.042;8.002;2024-01-15T02:23:45;98945.16;;;-1.49;90.11
20424;BME280;10371;49.042;8.002;2024-01-15T02:24:45;98946.06;;;-1.50;89.68
20424;BME280;10371;49.042;8.002;2024-01-15T02:25:46;98937.41;;;-1.48;90.04
20424;BME280;10371;49.042;8.002;2024-01-15T02:26:46;98951.22;;;-1.52;90.02
20424;BME280;10371;49.042;8.002;2024-01-15T02:27:47;98950.31;;;-1.51;89.79
20424;BME280;10371;49.042;8.002;2024-01-15T02:28:48;98947.75;;;-1.51;89.81
20424;BME280;10371;49.042;8.002;2024-01-15T02:29:48;98945.81;;;-1.46;89.92
20424;BME280;10371;49.042;8.002;2024-01-15T02:30:49;98936.44;;;-1.45;90.11
20424;BME280;10371;49.042;8.002;2024-01-15T02:31:49;98942.16;;;-1.40;89.71
20424;BME280;10371;49.042;8.002;2024-01-15T02:32:50;98946.41;;;-1.39;89.75
20424;BME280;10371;49.042;8.002;2024-01-15T02:33:50;98943.94;;;-1.42;89.39
20424;BME280;10371;49.042;8.002;2024-01-15T02:34:50;98945.34;;;-1.35;89.45
20424;BME280;10371;49.042;8.002;2024-01-15T02:35:51;98940.28;;;-1.37;89.46
20424;BME280;10371;49.042;8.002;2024-01-15T02:36:51;98945.28;;;-1.33;89.33
20424;BME280;10371;49.042;8.002;2024-01-15T02:37:51;98952.38;;;-1.40;89.38
20424;BME280;10371;49.042;8.002;2024-01-15T02:38:51;98943.22;;;-1.44;89.24
20424;BME280;10371;49.042;8.002;2024-01-15T02:39:52;98940.81;;;-1.47;89.39
20424;BME280;10371;49.042;8.002;2024-01-15T02:40:52;98940.66;;;-1.44;89.66
20424;BME280;10371;49.042;8.002;2024-01-15T02:41:52;98942.09;;;-1.39;89.59
20424;BME280;10371;49.042;8.002;2024-01-15T02:42:53;98945.53;;;-1.40;89.55
20424;BME280;10371;49.042;8.002;2024-01-15T02:43:53;98948.84;;;-1.38;89.79
20424;BME280;10371;49.042;8.002;2024-01-15T02:44:53;98942.78;;;-1.35;89.41
20424;BME280;10371;49.042;8.002;2024-01-15T02:45:53;98946.09;;;-1.33;89.80
20424;BME280;10371;49.042;8.002;2024-01-15T02:46:54;98946.25;;;-1.36;89.66
20424;BME280;10371;49.042;8.002;2024-01-15T02:47:54;98949.53;;;-1.34;89.93
20424;BME280;10371;49.042;8.002;2024-01-15T02:48:54;98946.16;;;-1.35;89.57
20424;BME280;10371;49.042;8.002;2024-01-15T02:49:55;98951.97;;;-1.31;89.86
20424;BME280;10371;49.042;8.002;2024-01-15T02:50:55;98948.50;;;-1.30;89.81
20424;BME280;10371;49.042;8.002;2024-01-15T02:51:55;98944.22;;;-1.29;89.82
20424;BME280;10371;49.042;8.002;2024-01-15T02:52:55;98943.19;;;-1.25;89.53
20424;BME280;10371;49.042;8.002;2024-01-15T02:53:56;98944.84;;;-1.24;89.42
20424;BME280;10371;49.042;8.002;2024-01-15T02:54:56;98940.09;;;-1.32;89.43
20424;BME280;10371;49.042;8.002;2024-01-15T02:55:56;98949.41;;;-1.31;89.67
20424;BME280;10371;49.042;8.002;2024-01-15T02:56:56;98946.78;;;-1.29;89.70
20424;BME280;10371;49.042;8.002;2024-01-15T02:57:57;98950.25;;;-1.30;89.50
20424;BME280;10371;49.042;8.002;2024-01-15T02:58:57;98946.78;;;-1.29;89.33
20424;BME280;10371;49.042;8.002;2024-01-15T02:59:57;98941.06;;;-1.35;89.51
20424;BME280;10371;49.042;8.002;2024-01-15T03:00:58;98952.03;;;-1.32;89.93
20424;BME280;10371;49.042;8.002;2024-01-15T03:01:58;98948.56;;;-1.31;89.49
20424;BME280;10371;49.042;8.002;2024-01-15T03:02:58;98948.44;;;-1.28;89.90
20424;BME280;10371;49.042;8.002;2024-01-15T03:03:58;98939.13;;;-1.29;89.61
20424;BME280;10371;49.042;8.002;2024-01-15T03:04:59;98945.00;;;-1.27;89.73
20424;BME280;10371;49.042;8.002;2024-01-15T03:05:59;98941.66;;;-1.29;89.45
20424;BME280;10371;49.042;8.002;2024-01-15T03:06:59;98944.31;;;-1.31;89.57
20424;BME280;10371;49.042;8.002;2024-01-15T03:07:59;98938.22;;;-1.28;89.41
20424;BME280;10371;49.042;8.002;2024-01-15T03:09:00;98939.06;;;-1.28;89.09
20424;BME280;10371;49.042;8.002;2024-01-15T03:10:00;98950.09;;;-1.27;89.50
20424;BME280;10371;49.042;8.002;2024-01-15T03:11:00;98949.13;;;-1.25;89.38
20424;BME280;10371;49.042;8.002;2024-01-15T03:12:01;98941.38;;;-1.23;89.50
20424;BME280;10371;49.042;8.002;2024-01-15T03:13:01;98951.59;;;-1.23;89.25
20424;BME280;10371;49.042;8.002;2024-01-15T03:14:02;98948.16;;;-1.22;89.26
20424;BME280;10371;49.042;8.002;2024-01-15T03:15:02;98936.22;;;-1.22;89.31
20424;BME280;10371;49.042;8.002;2024-01-15T03:16:04;98939.53;;;-1.20;89.15
20424;BME280;10371;49.042;8.002;2024-01-15T03:17:05;98948.16;;;-1.22;89.30
20424;BME280;10371;49.042;8.002;2024-01-15T03:18:05;98945.81;;;-1.27;89.05
20424;BME280;10371;49.042;8.002;2024-01-15T03:19:05;98942.44;;;-1.27;88.92
20424;BME280;10371;49.042;8.002;2024-01-15T03:20:06;98940.41;;;-1.21;89.01
20424;BME280;10371;49.042;8.002;2024-01-15T03:21:07;98947.06;;;-1.17;89.40
20424;BME280;10371;49.042;8.002;2024-01-15T03:22:07;98930.28;;;-1.22;89.34
20424;BME280;10371;49.042;8.002;2024-01-15T03:23:08;98935.31;;;-1.21;88.90
20424;BME280;10371;49.042;8.002;2024-01-15T03:24:09;98937.03;;;-1.21;89.43
20424;BME280;10371;49.042;8.002;2024-01-15T03:25:09;98935.59;;;-1.27;89.09
20424;BME280;10371;49.042;8.002;2024-01-15T03:26:09;98938.81;;;-1.23;89.32
20424;BME280;10371;49.042;8.002;2024-01-15T03:27:10;98941.09;;;-1.17;89.17
20424;BME280;10371;49.042;8.002;2024-01-15T03:28:10;98931.13;;;-1.22;89.14
20424;BME280;10371;49.042;8.002;2024-01-15T03:29:10;98946.34;;;-1.20;89.13
20424;BME280;10371;49.042;8.002;2024-01-15T03:30:11;98944.69;;;-1.21;89.30
20424;BME280;10371;49.042;8.002;2024-01-15T03:31:11;98942.09;;;-1.20;89.25
20424;BME280;10371;49.042;8.002;2024-01-15T03:32:12;98944.69;;;-1.21;89.29
20424;BME280;10371;49.042;8.002;2024-01-15T03:33:12;98949.66;;;-1.18;89.70
20424;BME280;10371;49.042;8.002;2024-01-15T03:34:12;98942.19;;;-1.23;89.31
20424;BME280;10371;49.042;8.002;2024-01-15T03:35:13;98942.53;;;-1.12;89.14
20424;BME280;10371;49.042;8.002;2024-01-15T03:36:13;98938.28;;;-1.11;89.07
20424;BME280;10371;49.042;8.002;2024-01-15T03:37:13;98933.84;;;-1.07;89.46
20424;BME280;10371;49.042;8.002;2024-01-15T03:38:14;98936.53;;;-1.10;89.14
20424;BME280;10371;49.042;8.002;2024-01-15T03:39:14;98933.38;;;-1.16;89.55
20424;BME280;10371;49.042;8.002;2024-01-15T03:40:14;98929.38;;;-1.21;89.28
20424;BME280;10371;49.042;8.002;2024-01-15T03:41:14;98929.91;;;-1.15;89.69
20424;BME280;10371;49.042;8.002;2024-01-15T03:42:15;98931.59;;;-1.14;89.64
20424;BME280;10371;49.042;8.002;2024-01-15T03:43:16;98928.25;;;-1.16;89.56
20424;BME280;10371;49.042;8.002;2024-01-15T03:44:16;98928.31;;;-1.17;89.57
20424;BME280;10371;49.042;8.002;2024-01-15T03:45:16;98929.91;;;-1.15;89.67
20424;BME280;10371;49.042;8.002;2024-01-15T03:46:16;98928.41;;;-1.19;89.67
20424;BME280;10371;49.042;8.002;2024-01-15T03:47:17;98924.94;;;-1.18;89.78
20424;BME280;10371;49.042;8.002;2024-01-15T03:48:17;98932.59;;;-1.18;89.53
20424;BME280;10371;49.042;8.002;2024-01-15T03:49:17;98917.44;;;-1.21;89.61
20424;BME280;10371;49.042;8.002;2024-01-15T03:50:17;98917.22;;;-1.16;89.77
20424;BME280;10371;49.042;8.002;2024-01-15T03:51:18;98918.56;;;-1.09;89.98
20424;BME280;10371;49.042;8.002;2024-01-15T03:52:18;98918.06;;;-1.16;89.98
20424;BME280;10371;49.042;8.002;2024-01-15T03:53:18;98916.25;;;-1.14;89.89
20424;BME280;10371;49.042;8.002;2024-01-15T03:54:19;98919.13;;;-1.02;89.74
20424;BME280;10371;49.042;8.002;2024-01-15T03:55:19;98920.09;;;-1.05;89.57
20424;BME280;10371;49.042;8.002;2024-01-15T03:56:19;98913.31;;;-1.06;89.73
20424;BME280;10371;49.042;8.002;2024-01-15T03:57:19;98909.88;;;-1.05;89.82
20424;BME280;10371;49.042;8.002;2024-01-15T03:58:20;98912.34;;;-1.03;89.29
20424;BME280;10371;49.042;8.002;2024-01-15T03:59:20;98908.22;;;-1.06;89.66
20424;BME280;10371;49.042;8.002;2024-01-15T04:00:20;98903.88;;;-1.04;89.37
20424;BME280;10371;49.042;8.002;2024-01-15T04:01:21;98895.38;;;-1.04;89.61
20424;BME280;10371;49.042;8.002;2024-01-15T04:02:21;98899.97;;;-0.94;89.68
20424;BME280;10371;49.042;8.002;2024-01-15T04:03:21;98898.44;;;-0.98;89.38
20424;BME280;10371;49.042;8.002;2024-01-15T04:04:22;98898.25;;;-0.93;89.49
20424;BME280;10371;49.042;8.002;2024-01-15T04:05:22;98897.41;;;-0.94;89.24
20424;BME280;10371;49.042;8.002;2024-01-15T04:06:22;98908.56;;;-0.95;89.14
20424;BME280;10371;49.042;8.002;2024-01-15T04:07:22;98914.63;;;-0.97;89.19
20424;BME280;10371;49.042;8.002;2024-01-15T04:08:23;98915.00;;;-1.05;89.37
20424;BME280;10371;49.042;8.002;2024-01-15T04:09:23;98899.66;;;-1.05;89.29
20424;BME280;10371;49.042;8.002;2024-01-15T04:10:23;98902.84;;;-1.00;89.47
20424;BME280;10371;49.042;8.002;2024-01-15T04:11:23;98895.16;;;-1.00;89.47
20424;BME280;10371;49.042;8.002;2024-01-15T04:12:24;98899.53;;;-1.02;89.42
20424;BME280;10371;49.042;8.002;2024-01-15T04:13:24;98900.50;;;-1.04;89.73
20424;BME280;10371;49.042;8.002;2024-01-15T04:14:25;98902.13;;;-1.03;89.87
20424;BME280;10371;49.042;8.002;2024-01-15T04:15:25;98901.00;;;-0.98;89.50
20424;BME280;10371;49.042;8.002;2024-01-15T04:16:25;98891.91;;;-1.03;89.72
20424;BME280;10371;49.042;8.002;2024-01-15T04:17:26;98891.25;;;-1.07;89.78
20424;BME280;10371;49.042;8.002;2024-01-15T04:18:27;98887.09;;;-1.09;90.14
20424;BME280;10371;49.042;8.002;2024-01-15T04:19:27;98889.44;;;-1.05;89.88
20424;BME280;10371;49.042;8.002;2024-01-15T04:20:27;98879.44;;;-1.09;89.87
20424;BME280;10371;49.042;8.002;2024-01-15T04:21:27;98892.97;;;-1.07;90.08
20424;BME280;10371;49.042;8.002;2024-01-15T04:22:28;98891.91;;;-1.03;90.17
20424;BME280;10371;49.042;8.002;2024-01-15T04:23:28;98893.50;;;-1.01;90.03
20424;BME280;10371;49.042;8.002;2024-01-15T04:24:28;98887.88;;;-1.07;90.24
20424;BME280;10371;49.042;8.002;2024-01-15T04:25:28;98887.72;;;-1.04;90.31
20424;BME280;10371;49.042;8.002;2024-01-15T04:26:29;98888.22;;;-0.98;89.93
20424;BME280;10371;49.042;8.002;2024-01-15T04:27:29;98889.00;;;-0.96;90.10
20424;BME280;10371;49.042;8.002;2024-01-15T04:28:29;98886.53;;;-0.97;90.03
20424;BME280;10371;49.042;8.002;2024-01-15T04:29:30;98882.41;;;-1.00;89.90
20424;BME280;10371;49.042;8.002;2024-01-15T04:30:30;98876.47;;;-1.00;89.91
20424;BME280;10371;49.042;8.002;2024-01-15T04:31:30;98881.63;;;-1.02;90.27
20424;BME280;10371;49.042;8.002;2024-01-15T04:32:30;98885.00;;;-1.01;90.45
20424;BME280;10371;49.042;8.002;2024-01-15T04:33:31;98884.94;;;-1.00;90.21
20424;BME280;10371;49.042;8.002;2024-01-15T04:34:31;98889.91;;;-0.97;90.26
20424;BME280;10371;49.042;8.002;2024-01-15T04:35:32;98882.31;;;-0.98;90.49
20424;BME280;10371;49.042;8.002;2024-01-15T04:36:38;98872.84;;;-0.96;90.39
20424;BME280;10371;49.042;8.002;2024-01-15T04:37:39;98885.69;;;-0.98;90.19
20424;BME280;10371;49.042;8.002;2024-01-15T04:38:40;98889.91;;;-0.97;90.35
20424;BME280;10371;49.042;8.002;2024-01-15T04:39:40;98881.19;;;-0.93;90.17
20424;BME280;10371;49.042;8.002;2024-01-15T04:40:40;98883.72;;;-0.93;90.57
20424;BME280;10371;49.042;8.002;2024-01-15T04:41:41;98887.19;;;-0.94;90.57
20424;BME280;10371;49.042;8.002;2024-01-15T04:42:41;98883.44;;;-0.86;90.29
20424;BME280;10371;49.042;8.002;2024-01-15T04:43:41;98876.63;;;-0.86;90.00
20424;BME280;10371;49.042;8.002;2024-01-15T04:44:41;98886.69;;;-0.83;90.33
20424;BME280;10371;49.042;8.002;2024-01-15T04:45:42;98874.72;;;-0.82;90.07
20424;BME280;10371;49.042;8.002;2024-01-15T04:46:42;98881.56;;;-0.83;90.15
20424;BME280;10371;49.042;8.002;2024-01-15T04:47:43;98875.75;;;-0.86;90.18
20424;BME280;10371;49.042;8.002;2024-01-15T04:48:44;98872.63;;;-0.92;90.07
20424;BME280;10371;49.042;8.002;2024-01-15T04:49:44;98870.97;;;-0.93;90.26
20424;BME280;10371;49.042;8.002;2024-01-15T04:50:44;98876.53;;;-0.84;90.42
20424;BME280;10371;49.042;8.002;2024-01-15T04:51:44;98874.72;;;-0.82;89.97
20424;BME280;10371;49.042;8.002;2024-01-15T04:52:45;98871.34;;;-0.83;89.93
20424;BME280;10371;49.042;8.002;2024-01-15T04:53:45;98852.09;;;-0.90;90.03
20424;BME280;10371;49.042;8.002;2024-01-15T04:54:45;98874.44;;;-0.94;90.01
20424;BME280;10371;49.042;8.002;2024-01-15T04:55:45;98872.63;;;-0.92;90.30
20424;BME280;10371;49.042;8.002;2024-01-15T04:56:46;98871.72;;;-0.91;90.52
20424;BME280;10371;49.042;8.002;2024-01-15T04:57:46;98869.16;;;-0.91;90.59
20424;BME280;10371;49.042;8.002;2024-01-15T04:58:47;98860.69;;;-0.91;90.36
20424;BME280;10371;49.042;8.002;2024-01-15T04:59:47;98855.72;;;-0.94;90.43
20424;BME280;10371;49.042;8.002;2024-01-15T05:00:47;98853.03;;;-0.91;90.87
20424;BME280;10371;49.042;8.002;2024-01-15T05:01:48;98864.06;;;-0.91;90.51
20424;BME280;10371;49.042;8.002;2024-01-15T05:02:48;98866.47;;;-0.87;90.64
20424;BME280;10371;49.042;8.002;2024-01-15T05:03:49;98865.69;;;-0.90;90.45
20424;BME280;10371;49.042;8.002;2024-01-15T05:04:49;98859.00;;;-0.92;90.59
20424;BME280;10371;49.042;8.002;2024-01-15T05:05:50;98858.88;;;-0.89;90.85
20424;BME280;10371;49.042;8.002;2024-01-15T05:06:50;98858.03;;;-0.90;90.62
20424;BME280;10371;49.042;8.002;2024-01-15T05:07:51;98859.88;;;-0.92;90.82
20424;BME280;10371;49.042;8.002;2024-01-15T05:08:51;98856.84;;;-1.00;90.81
20424;BME280;10371;49.042;8.002;2024-01-15T05:09:51;98857.88;;;-0.86;90.95
20424;BME280;10371;49.042;8.002;2024-01-15T05:10:52;98858.66;;;-0.84;90.83
20424;BME280;10371;49.042;8.002;2024-01-15T05:11:52;98852.56;;;-0.82;90.96
20424;BME280;10371;49.042;8.002;2024-01-15T05:12:52;98849.34;;;-0.85;90.90
20424;BME280;10371;49.042;8.002;2024-01-15T05:13:52;98844.13;;;-0.84;90.57
20424;BME280;10371;49.042;8.002;2024-01-15T05:14:53;98838.28;;;-0.86;90.86
20424;BME280;10371;49.042;8.002;2024-01-15T05:15:53;98842.56;;;-0.86;90.88
20424;BME280;10371;49.042;8.002;2024-01-15T05:16:53;98846.69;;;-0.84;90.76
20424;BME280;10371;49.042;8.002;2024-01-15T05:17:53;98848.50;;;-0.86;91.01
20424;BME280;10371;49.042;8.002;2024-01-15T05:18:54;98851.94;;;-0.87;91.20
20424;BME280;10371;49.042;8.002;2024-01-15T05:19:54;98852.09;;;-0.90;91.11